Time;durP1;ratioP1;P1;durP2;ratioP2;P2;SDS_P1;SDS_P2;PMS_P1;PMS_P2;Temp;Humidity;BMP_temperature;BMP_pressure;BME280_temperature;BME280_humidity;BME280_pressure;Samples;Min_cycle;Max_cycle;Signal;HPM_P1;HPM_P2
2022/04/28 00:00:10;;;;;;;;;;;14.70;85.00;14.90;99888.00;;;;348387;27;83392;-85
2022/04/28 00:00:24;;;;;;;;;;;14.60;84.80;14.90;99892.00;;;;345754;28;87433;-85
2022/04/28 00:00:36;;;;;;;;;;;14.60;84.90;14.80;99895.00;;;;342969;28;82560;-85
2022/04/28 00:00:48;;;;;;;;;;;14.60;84.80;14.80;99895.00;;;;346854;28;87206;-85
2022/04/28 00:01:00;;;;;;;;;;;14.60;85.10;14.90;99893.00;;;;344450;28;83471;-85
2022/04/28 00:01:14;;;;;;;;;;;14.60;84.80;14.90;99901.00;;;;344260;28;88100;-85
2022/04/28 00:01:26;;;;;;;;;;;14.60;84.70;14.90;99900.00;;;;346848;28;83463;-85
2022/04/28 00:01:38;;;;;;;;;;;14.60;84.50;14.90;99902.00;;;;344324;28;84251;-85
2022/04/28 00:01:50;;;;;;;;;;;14.60;84.50;14.90;99890.00;;;;344173;28;83459;-85
2022/04/28 00:02:01;;;;;;;;;;;14.60;84.50;14.80;99897.00;;;;348640;27;86482;-85
2022/04/28 00:02:13;;;;;;;;;;;14.60;84.90;14.90;99903.00;;;;347124;28;83489;-85
2022/04/28 00:02:25;;;;;;;;;;;14.60;84.70;14.80;99896.00;;;;346819;28;86445;-85
2022/04/28 00:02:37;;;;;;;;;;;14.60;84.80;14.80;99901.00;;;;344423;28;83407;-85
2022/04/28 00:02:50;;;;;;;;;;;14.50;84.80;14.80;99900.00;;;;344029;28;88045;-85
2022/04/28 00:03:02;;;;;;;;;;;14.50;84.60;14.90;99901.00;;;;345686;28;83459;-85
2022/04/28 00:03:14;;;;;;;;;;;14.50;84.20;14.90;99895.00;;;;347088;28;84504;-85
2022/04/28 00:03:26;;;;;;;;;;;14.60;84.20;14.90;99898.00;;;;347163;28;82399;-85
2022/04/28 00:03:38;;;;;;;;;;;14.50;84.10;14.90;99897.00;;;;346881;28;83864;-85
2022/04/28 00:03:51;;;;;;;;;;;14.50;84.20;14.90;99896.00;;;;348545;27;83372;-85
2022/04/28 00:04:03;;;;;;;;;;;14.50;84.30;14.80;99898.00;;;;345526;28;85167;-85
2022/04/28 00:04:15;;;;;;;;;;;14.50;84.90;14.90;99900.00;;;;347041;28;82430;-85
2022/04/28 00:04:27;;;;;;;;;;;14.50;84.80;14.90;99896.00;;;;347185;28;84261;-86
2022/04/28 00:04:39;;;;;;;;;;;14.50;84.80;14.90;99898.00;;;;349878;27;83443;-85
2022/04/28 00:04:51;;;;;;;;;;;14.50;84.60;14.90;99894.00;;;;345514;28;86281;-85
2022/04/28 00:05:03;;;;;;;;;;;14.50;84.50;15.00;99897.00;;;;347898;27;83534;-85
2022/04/28 00:05:15;;;;;;;;;;;14.50;85.20;15.00;99899.00;;;;347196;27;87864;-85
2022/04/28 00:05:27;;;;;;;;;;;14.50;84.80;15.10;99891.00;;;;343239;28;83315;-85
2022/04/28 00:05:39;;;;;;;;;;;14.50;85.10;15.10;99896.00;;;;344307;28;84201;-85
2022/04/28 00:05:51;;;;;;;;;;;14.50;85.10;15.10;99893.00;;;;345516;28;83387;-85
2022/04/28 00:06:03;;;;;;;;;;;14.60;85.30;15.00;99899.00;;;;343664;28;86463;-86
2022/04/28 00:06:15;;;;;;;;;;;14.60;85.40;15.00;99900.00;;;;345918;28;83355;-85
2022/04/28 00:06:26;;;;;;;;;;;14.60;85.50;14.90;99896.00;;;;345691;28;86334;-85
2022/04/28 00:06:38;;;;;;;;;;;14.60;85.60;14.90;99897.00;;;;343063;28;83408;-85
2022/04/28 00:06:50;;;;;;;;;;;14.50;85.80;14.90;99898.00;;;;348225;27;87454;-85
2022/04/28 00:07:02;;;;;;;;;;;14.50;85.50;14.80;99898.00;;;;347193;28;83422;-85
2022/04/28 00:07:14;;;;;;;;;;;14.50;85.40;14.80;99904.00;;;;344226;28;86005;-85
2022/04/28 00:07:26;;;;;;;;;;;14.50;85.60;14.70;99897.00;;;;345507;28;83429;-85
2022/04/28 00:07:38;;;;;;;;;;;14.50;85.90;14.80;99904.00;;;;345540;28;85242;-84
2022/04/28 00:07:50;;;;;;;;;;;14.50;85.60;14.80;99905.00;;;;345637;28;83465;-85
2022/04/28 00:08:02;;;;;;;;;;;14.50;85.20;14.90;99900.00;;;;345577;28;82529;-85
2022/04/28 00:08:14;;;;;;;;;;;14.50;84.90;14.80;99892.00;;;;345127;28;82426;-85
2022/04/28 00:08:26;;;;;;;;;;;14.50;85.10;14.90;99897.00;;;;345221;28;83829;-85
2022/04/28 00:08:38;;;;;;;;;;;14.50;84.90;14.90;99903.00;;;;344292;28;83489;-85
2022/04/28 00:08:50;;;;;;;;;;;14.50;85.40;14.80;99896.00;;;;345673;28;85987;-85
2022/04/28 00:09:02;;;;;;;;;;;14.50;85.90;14.80;99899.00;;;;346811;28;83725;-85
2022/04/28 00:09:14;;;;;;;;;;;14.50;85.80;14.70;99900.00;;;;348289;27;85923;-85
2022/04/28 00:09:25;;;;;;;;;;;14.50;86.10;14.70;99893.00;;;;345470;28;83510;-85
2022/04/28 00:09:37;;;;;;;;;;;14.50;86.10;14.70;99897.00;;;;344096;28;85939;-85
2022/04/28 00:09:49;;;;;;;;;;;14.50;86.10;14.70;99892.00;;;;345765;28;83441;-85
2022/04/28 00:10:01;;;;;;;;;;;14.50;86.00;14.70;99900.00;;;;346856;28;85392;-85
2022/04/28 00:10:13;;;;;;;;;;;14.40;86.30;14.70;99888.00;;;;346896;28;83600;-85
2022/04/28 00:10:24;;;;;;;;;;;14.40;86.10;14.70;99897.00;;;;345727;28;84407;-85
2022/04/28 00:10:37;;;;;;;;;;;14.40;85.50;14.70;99902.00;;;;345890;28;82220;-85
2022/04/28 00:10:49;;;;;;;;;;;14.40;85.50;14.70;99910.00;;;;345454;28;86465;-85
2022/04/28 00:11:00;;;;;;;;;;;14.40;85.50;14.80;99902.00;;;;345028;28;83527;-85
2022/04/28 00:11:12;;;;;;;;;;;14.40;85.10;14.80;99896.00;;;;348137;27;85422;-85
2022/04/28 00:11:24;;;;;;;;;;;14.40;85.30;14.70;99896.00;;;;347167;28;82207;-85
2022/04/28 00:11:36;;;;;;;;;;;14.40;85.50;14.80;99897.00;;;;345398;28;85428;-85
2022/04/28 00:11:49;;;;;;;;;;;14.40;85.50;14.70;99899.00;;;;348356;27;83554;-85
2022/04/28 00:12:03;;;;;;;;;;;14.40;85.60;14.80;99892.00;;;;347018;28;84367;-85
2022/04/28 00:12:15;;;;;;;;;;;14.40;85.60;14.80;99895.00;;;;345755;28;83367;-85
2022/04/28 00:12:27;;;;;;;;;;;14.40;85.60;14.70;99899.00;;;;345744;28;83982;-86
2022/04/28 00:12:39;;;;;;;;;;;14.40;86.40;14.70;99900.00;;;;348471;27;82510;-85
2022/04/28 00:12:51;;;;;;;;;;;14.40;86.70;14.80;99892.00;;;;344249;28;84586;-85
2022/04/28 00:13:04;;;;;;;;;;;14.40;86.10;14.70;99897.00;;;;343136;28;83109;-85
2022/04/28 00:13:16;;;;;;;;;;;14.40;86.20;14.70;99901.00;;;;347052;28;85067;-85
2022/04/28 00:13:27;;;;;;;;;;;14.40;85.80;14.80;99886.00;;;;345815;28;83235;-85
2022/04/28 00:13:39;;;;;;;;;;;14.40;85.60;14.70;99901.00;;;;345488;28;85675;-85
2022/04/28 00:13:51;;;;;;;;;;;14.40;85.70;14.70;99901.00;;;;346854;28;83558;-85
2022/04/28 00:14:03;;;;;;;;;;;14.40;85.60;14.80;99895.00;;;;347505;27;87750;-85
2022/04/28 00:14:16;;;;;;;;;;;14.40;85.50;14.80;99894.00;;;;346903;28;82487;-85
2022/04/28 00:14:30;;;;;;;;;;;14.40;85.80;14.80;99894.00;;;;344263;28;85270;-85
2022/04/28 00:14:43;;;;;;;;;;;14.40;85.90;14.70;99897.00;;;;344434;28;83371;-85
2022/04/28 00:14:55;;;;;;;;;;;14.40;86.50;14.60;99893.00;;;;344152;28;85493;-84
2022/04/28 00:15:07;;;;;;;;;;;14.40;86.80;14.60;99898.00;;;;344000;28;83383;-85
2022/04/28 00:15:19;;;;;;;;;;;14.30;86.70;14.50;99893.00;;;;346778;28;87194;-85
2022/04/28 00:15:31;;;;;;;;;;;14.30;86.50;14.60;99895.00;;;;348269;27;83534;-85
2022/04/28 00:15:44;;;;;;;;;;;14.30;86.40;14.70;99898.00;;;;347059;28;85462;-85
2022/04/28 00:15:56;;;;;;;;;;;14.30;86.30;14.70;99897.00;;;;347154;28;83382;-85
2022/04/28 00:16:08;;;;;;;;;;;14.30;86.40;14.80;99893.00;;;;345629;28;85164;-85
2022/04/28 00:16:19;;;;;;;;;;;14.30;86.30;14.70;99904.00;;;;344441;28;82416;-85
2022/04/28 00:16:31;;;;;;;;;;;14.30;86.60;14.70;99887.00;;;;345515;28;85721;-85
2022/04/28 00:16:43;;;;;;;;;;;14.30;86.20;14.80;99894.00;;;;347162;28;83386;-86
2022/04/28 00:16:55;;;;;;;;;;;14.30;86.00;14.70;99892.00;;;;347124;28;86168;-85
2022/04/28 00:17:07;;;;;;;;;;;14.30;86.30;14.60;99896.00;;;;346856;28;83399;-85
2022/04/28 00:17:18;;;;;;;;;;;14.30;87.10;14.60;99901.00;;;;344112;28;87891;-85
2022/04/28 00:17:30;;;;;;;;;;;14.30;87.10;14.60;99895.00;;;;346371;28;83658;-85
2022/04/28 00:17:42;;;;;;;;;;;14.30;86.90;14.60;99898.00;;;;348158;27;86146;-85
2022/04/28 00:17:54;;;;;;;;;;;14.30;86.60;14.60;99893.00;;;;344405;28;82446;-85
2022/04/28 00:18:05;;;;;;;;;;;14.30;86.70;14.60;99897.00;;;;347998;27;87013;-86
2022/04/28 00:18:17;;;;;;;;;;;14.30;86.50;14.60;99893.00;;;;347232;28;83441;-85
2022/04/28 00:18:29;;;;;;;;;;;14.30;86.60;14.60;99891.00;;;;345741;28;85085;-85
2022/04/28 00:18:41;;;;;;;;;;;14.30;86.50;14.50;99897.00;;;;342983;28;83434;-85
2022/04/28 00:18:53;;;;;;;;;;;14.30;87.00;14.40;99905.00;;;;345592;28;88537;-85
2022/04/28 00:19:05;;;;;;;;;;;14.30;87.60;14.40;99899.00;;;;347050;28;83492;-85
2022/04/28 00:19:17;;;;;;;;;;;14.30;87.70;14.30;99895.00;;;;348433;27;86194;-85
2022/04/28 00:19:28;;;;;;;;;;;14.30;87.70;14.30;99902.00;;;;347049;28;82563;-85
2022/04/28 00:19:40;;;;;;;;;;;14.30;87.60;14.30;99889.00;;;;345726;28;86195;-85
2022/04/28 00:19:52;;;;;;;;;;;14.20;87.60;14.30;99894.00;;;;345743;28;83439;-85
2022/04/28 00:20:05;;;;;;;;;;;14.20;87.50;14.50;99895.00;;;;347564;27;83909;-85
2022/04/28 00:20:17;;;;;;;;;;;14.20;87.60;14.60;99890.00;;;;346512;28;83579;-85
2022/04/28 00:20:31;;;;;;;;;;;14.20;87.60;14.70;99891.00;;;;344221;28;86553;-85
2022/04/28 00:20:43;;;;;;;;;;;14.20;87.90;14.60;99887.00;;;;344382;28;83454;-86
2022/04/28 00:20:54;;;;;;;;;;;14.20;87.80;14.60;99895.00;;;;344228;28;86978;-85
2022/04/28 00:21:06;;;;;;;;;;;14.20;87.80;14.70;99888.00;;;;345416;28;83527;-85
2022/04/28 00:21:18;;;;;;;;;;;14.30;87.60;14.60;99886.00;;;;348368;27;86272;-85
2022/04/28 00:21:30;;;;;;;;;;;14.20;87.50;14.70;99893.00;;;;348564;27;83216;-85
2022/04/28 00:21:41;;;;;;;;;;;14.20;87.20;14.60;99887.00;;;;346874;28;85939;-85
2022/04/28 00:21:53;;;;;;;;;;;14.30;87.10;14.50;99888.00;;;;346938;28;83415;-85
2022/04/28 00:22:05;;;;;;;;;;;14.30;87.30;14.50;99893.00;;;;345623;28;83398;-84
2022/04/28 00:22:17;;;;;;;;;;;14.20;87.70;14.50;99887.00;;;;347020;28;83302;-85
2022/04/28 00:22:29;;;;;;;;;;;14.20;87.70;14.50;99896.00;;;;345719;28;83783;-85
2022/04/28 00:22:41;;;;;;;;;;;14.20;87.60;14.50;99896.00;;;;342909;28;82498;-85
2022/04/28 00:22:53;;;;;;;;;;;14.20;87.80;14.50;99891.00;;;;344296;28;83679;-85
2022/04/28 00:23:05;;;;;;;;;;;14.20;87.80;14.50;99895.00;;;;346747;28;83427;-85
2022/04/28 00:23:17;;;;;;;;;;;14.20;87.80;14.40;99897.00;;;;346433;28;88153;-85
2022/04/28 00:23:29;;;;;;;;;;;14.20;88.00;14.30;99893.00;;;;344933;28;83375;-85
2022/04/28 00:23:40;;;;;;;;;;;14.20;88.60;14.40;99898.00;;;;345633;28;86109;-86
2022/04/28 00:23:52;;;;;;;;;;;14.10;88.50;14.50;99888.00;;;;344201;28;83262;-85
2022/04/28 00:24:04;;;;;;;;;;;14.10;87.70;14.60;99890.00;;;;345685;28;85963;-85
2022/04/28 00:24:16;;;;;;;;;;;14.10;87.70;14.70;99890.00;;;;345488;28;83478;-85
2022/04/28 00:24:28;;;;;;;;;;;14.20;87.80;14.70;99888.00;;;;345613;28;85516;-85
2022/04/28 00:24:40;;;;;;;;;;;14.20;88.10;14.70;99888.00;;;;345778;28;83493;-85
2022/04/28 00:24:52;;;;;;;;;;;14.20;88.30;14.70;99890.00;;;;344083;28;83868;-85
2022/04/28 00:25:04;;;;;;;;;;;14.20;88.40;14.70;99890.00;;;;348415;27;82522;-85
2022/04/28 00:25:16;;;;;;;;;;;14.20;88.60;14.50;99891.00;;;;345478;28;87000;-85
2022/04/28 00:25:28;;;;;;;;;;;14.20;88.80;14.50;99887.00;;;;345594;28;83348;-85
2022/04/28 00:25:40;;;;;;;;;;;14.20;88.90;14.40;99884.00;;;;345692;28;84160;-85
2022/04/28 00:25:52;;;;;;;;;;;14.20;89.00;14.40;99892.00;;;;345468;28;82435;-85
2022/04/28 00:26:03;;;;;;;;;;;14.20;89.30;14.30;99894.00;;;;343695;28;87311;-85
2022/04/28 00:26:15;;;;;;;;;;;14.20;89.10;14.20;99895.00;;;;347574;27;83562;-85
2022/04/28 00:26:27;;;;;;;;;;;14.10;88.90;14.20;99893.00;;;;346998;28;87944;-85
2022/04/28 00:26:39;;;;;;;;;;;14.10;89.00;14.30;99892.00;;;;347209;28;83343;-85
2022/04/28 00:26:50;;;;;;;;;;;14.10;89.20;14.30;99897.00;;;;345486;28;86828;-85
2022/04/28 00:27:02;;;;;;;;;;;14.10;89.20;14.30;99898.00;;;;345794;28;83395;-85
2022/04/28 00:27:14;;;;;;;;;;;14.10;88.90;14.30;99893.00;;;;342765;28;84826;-85
2022/04/28 00:27:26;;;;;;;;;;;14.10;88.90;14.30;99898.00;;;;344374;28;83400;-85
2022/04/28 00:27:38;;;;;;;;;;;14.10;88.60;14.30;99904.00;;;;347169;28;84715;-84
2022/04/28 00:27:50;;;;;;;;;;;14.10;88.50;14.30;99896.00;;;;347197;28;83289;-85
2022/04/28 00:28:02;;;;;;;;;;;14.10;89.30;14.40;99902.00;;;;347073;28;84610;-84
2022/04/28 00:28:20;;;;;;;;;;;14.00;88.90;14.40;99895.00;;;;343091;28;82318;-85
2022/04/28 00:28:32;;;;;;;;;;;14.00;88.70;14.40;99904.00;;;;344361;28;85245;-86
2022/04/28 00:28:44;;;;;;;;;;;14.10;88.10;14.40;99895.00;;;;347056;28;83295;-85
2022/04/28 00:28:55;;;;;;;;;;;14.00;88.10;14.40;99901.00;;;;349538;27;86333;-86
2022/04/28 00:29:07;;;;;;;;;;;14.10;88.20;14.50;99897.00;;;;348294;27;83352;-85
2022/04/28 00:29:20;;;;;;;;;;;14.00;87.90;14.50;99898.00;;;;345678;28;84776;-85
2022/04/28 00:29:32;;;;;;;;;;;14.00;88.10;14.50;99904.00;;;;345043;28;83464;-85
2022/04/28 00:29:44;;;;;;;;;;;14.10;88.30;14.50;99892.00;;;;344164;28;85560;-85
2022/04/28 00:29:56;;;;;;;;;;;14.10;88.70;14.50;99892.00;;;;343116;28;82270;-84
2022/04/28 00:30:08;;;;;;;;;;;14.10;88.60;14.40;99901.00;;;;344112;28;85334;-86
2022/04/28 00:30:20;;;;;;;;;;;14.10;88.90;14.50;99897.00;;;;344356;28;82340;-85
2022/04/28 00:30:32;;;;;;;;;;;14.10;88.90;14.50;99902.00;;;;345825;28;84779;-86
2022/04/28 00:30:44;;;;;;;;;;;14.00;88.50;14.50;99899.00;;;;344237;28;82478;-85
2022/04/28 00:30:57;;;;;;;;;;;14.00;88.40;14.60;99897.00;;;;345700;28;84941;-85
2022/04/28 00:31:09;;;;;;;;;;;14.10;88.80;14.60;99895.00;;;;345835;28;82455;-86
2022/04/28 00:31:21;;;;;;;;;;;14.10;88.70;14.50;99899.00;;;;345380;28;86150;-85
2022/04/28 00:31:33;;;;;;;;;;;14.10;88.50;14.50;99900.00;;;;344244;28;82534;-85
2022/04/28 00:31:44;;;;;;;;;;;14.10;88.50;14.50;99898.00;;;;344392;28;83947;-85
2022/04/28 00:31:56;;;;;;;;;;;14.10;88.40;14.40;99896.00;;;;345501;28;83355;-85
2022/04/28 00:32:09;;;;;;;;;;;14.10;88.90;14.40;99898.00;;;;345068;28;85010;-85
2022/04/28 00:32:21;;;;;;;;;;;14.10;89.10;14.40;99903.00;;;;345775;28;82382;-85
2022/04/28 00:32:32;;;;;;;;;;;14.10;89.10;14.40;99899.00;;;;344311;28;84970;-85
2022/04/28 00:32:44;;;;;;;;;;;14.00;88.70;14.30;99896.00;;;;344367;28;83496;-85
2022/04/28 00:32:56;;;;;;;;;;;14.10;88.70;14.30;99899.00;;;;342886;28;87198;-85
2022/04/28 00:33:08;;;;;;;;;;;14.10;88.80;14.40;99905.00;;;;344371;28;83469;-85
2022/04/28 00:33:20;;;;;;;;;;;14.00;88.70;14.40;99893.00;;;;345682;28;86461;-85
2022/04/28 00:33:32;;;;;;;;;;;14.00;88.50;14.40;99896.00;;;;345769;28;83343;-85
2022/04/28 00:33:44;;;;;;;;;;;14.00;88.80;14.40;99899.00;;;;347034;28;87493;-85
2022/04/28 00:33:56;;;;;;;;;;;14.00;88.90;14.40;99895.00;;;;345736;28;83446;-85
2022/04/28 00:34:07;;;;;;;;;;;14.00;88.60;14.40;99890.00;;;;346888;28;85244;-86
2022/04/28 00:34:19;;;;;;;;;;;14.00;88.70;14.40;99897.00;;;;344340;28;83228;-85
2022/04/28 00:34:31;;;;;;;;;;;14.00;89.10;14.40;99896.00;;;;345659;28;85587;-85
2022/04/28 00:34:43;;;;;;;;;;;14.00;89.40;14.30;99902.00;;;;345813;28;83194;-86
2022/04/28 00:34:55;;;;;;;;;;;14.00;89.00;14.30;99905.00;;;;346996;27;85015;-86
2022/04/28 00:35:07;;;;;;;;;;;14.00;89.50;14.30;99904.00;;;;345370;28;83410;-85
2022/04/28 00:35:19;;;;;;;;;;;14.00;89.30;14.30;99899.00;;;;344117;28;84238;-85
2022/04/28 00:35:31;;;;;;;;;;;14.00;89.00;14.20;99901.00;;;;348135;27;82661;-85
2022/04/28 00:35:43;;;;;;;;;;;14.00;89.50;14.30;99894.00;;;;348422;27;87216;-85
2022/04/28 00:35:55;;;;;;;;;;;13.90;89.60;14.40;99897.00;;;;347148;28;82383;-85
2022/04/28 00:36:07;;;;;;;;;;;14.00;89.60;14.30;99907.00;;;;349348;27;88572;-85
2022/04/28 00:36:19;;;;;;;;;;;14.00;89.50;14.30;99901.00;;;;344475;28;83473;-86
2022/04/28 00:36:31;;;;;;;;;;;14.00;89.80;14.40;99901.00;;;;345355;28;87624;-86
2022/04/28 00:36:43;;;;;;;;;;;14.00;89.80;14.40;99898.00;;;;348614;27;83294;-85
2022/04/28 00:36:55;;;;;;;;;;;14.00;89.80;14.40;99905.00;;;;347020;28;86178;-85
2022/04/28 00:37:08;;;;;;;;;;;14.00;89.60;14.40;99897.00;;;;345781;28;82413;-85
2022/04/28 00:37:21;;;;;;;;;;;14.00;89.40;14.40;99897.00;;;;348451;27;85008;-85
2022/04/28 00:37:33;;;;;;;;;;;14.00;89.30;14.40;99903.00;;;;347131;28;82625;-85
2022/04/28 00:37:45;;;;;;;;;;;14.00;89.40;14.40;99900.00;;;;345621;28;84623;-85
2022/04/28 00:37:57;;;;;;;;;;;14.00;89.10;14.20;99900.00;;;;345404;28;83329;-85
2022/04/28 00:38:08;;;;;;;;;;;14.00;89.70;14.20;99900.00;;;;345749;28;85102;-85
2022/04/28 00:38:20;;;;;;;;;;;14.00;89.90;14.30;99896.00;;;;342976;28;83284;-85
2022/04/28 00:38:32;;;;;;;;;;;14.00;89.80;14.30;99900.00;;;;344932;28;85482;-85
2022/04/28 00:38:44;;;;;;;;;;;14.00;89.50;14.30;99903.00;;;;345545;28;82376;-86
2022/04/28 00:38:56;;;;;;;;;;;14.00;89.20;14.30;99900.00;;;;344145;28;87783;-86
2022/04/28 00:39:07;;;;;;;;;;;14.00;89.40;14.30;99901.00;;;;344461;28;82498;-86
2022/04/28 00:39:19;;;;;;;;;;;14.00;89.60;14.20;99899.00;;;;345725;28;84347;-86
2022/04/28 00:39:31;;;;;;;;;;;14.00;90.00;14.20;99902.00;;;;346848;28;83457;-85
2022/04/28 00:39:43;;;;;;;;;;;14.00;90.00;14.30;99898.00;;;;345422;28;86412;-85
2022/04/28 00:39:55;;;;;;;;;;;13.90;89.80;14.20;99898.00;;;;345628;28;82419;-85
2022/04/28 00:40:07;;;;;;;;;;;13.90;89.80;14.20;99900.00;;;;346976;28;85148;-84
2022/04/28 00:40:19;;;;;;;;;;;13.90;90.10;14.10;99894.00;;;;344458;28;82223;-85
2022/04/28 00:40:31;;;;;;;;;;;13.90;90.10;14.10;99903.00;;;;344284;28;85012;-85
2022/04/28 00:40:43;;;;;;;;;;;13.90;90.20;14.30;99900.00;;;;345633;28;82427;-86
2022/04/28 00:40:55;;;;;;;;;;;13.90;90.00;14.30;99894.00;;;;344027;28;84227;-85
2022/04/28 00:41:08;;;;;;;;;;;13.90;89.80;14.30;99902.00;;;;347933;27;83985;-85
2022/04/28 00:41:20;;;;;;;;;;;13.90;90.00;14.30;99898.00;;;;346860;28;85258;-85
2022/04/28 00:41:31;;;;;;;;;;;13.90;89.80;14.20;99908.00;;;;346521;28;82400;-85
2022/04/28 00:41:43;;;;;;;;;;;13.90;89.80;14.20;99899.00;;;;346689;28;84511;-85
2022/04/28 00:41:55;;;;;;;;;;;13.90;89.40;14.20;99900.00;;;;344527;28;83368;-85
2022/04/28 00:42:11;;;;;;;;;;;13.90;89.50;14.20;99900.00;;;;342898;28;88179;-85
2022/04/28 00:42:22;;;;;;;;;;;13.90;90.10;14.20;99903.00;;;;346289;28;82386;-85
2022/04/28 00:42:34;;;;;;;;;;;13.90;89.80;14.20;99899.00;;;;344695;28;87898;-85
2022/04/28 00:42:46;;;;;;;;;;;13.90;89.60;14.30;99896.00;;;;344824;28;83495;-85
2022/04/28 00:43:18;;;;;;;;;;;13.90;89.50;14.10;99907.00;;;;344590;28;85715;-86
2022/04/28 00:43:30;;;;;;;;;;;13.90;90.20;14.30;99905.00;;;;344829;28;83470;-85
2022/04/28 00:43:51;;;;;;;;;;;13.90;90.10;14.40;99899.00;;;;346145;28;84888;-85
2022/04/28 00:44:03;;;;;;;;;;;13.80;90.30;14.20;99885.00;;;;342883;28;83597;-85
2022/04/28 00:44:16;;;;;;;;;;;13.90;90.40;14.10;99896.00;;;;344702;28;84331;-85
2022/04/28 00:44:28;;;;;;;;;;;13.90;90.40;14.20;99900.00;;;;347240;28;82325;-85
2022/04/28 00:44:40;;;;;;;;;;;13.90;90.40;14.20;99892.00;;;;344546;28;86713;-85
2022/04/28 00:44:52;;;;;;;;;;;13.80;90.30;14.30;99893.00;;;;344865;28;83452;-84
2022/04/28 00:45:05;;;;;;;;;;;13.90;90.20;14.30;99902.00;;;;347052;28;84533;-85
2022/04/28 00:45:17;;;;;;;;;;;13.80;90.20;14.30;99894.00;;;;346127;28;82507;-85
2022/04/28 00:45:28;;;;;;;;;;;13.80;90.20;14.20;99894.00;;;;342967;28;87273;-85
2022/04/28 00:45:40;;;;;;;;;;;13.90;90.50;14.10;99898.00;;;;344672;28;82536;-85
2022/04/28 00:45:52;;;;;;;;;;;13.80;90.90;14.10;99899.00;;;;344788;28;83931;-85
2022/04/28 00:46:04;;;;;;;;;;;13.80;91.00;14.00;99905.00;;;;344800;28;82295;-85
2022/04/28 00:46:16;;;;;;;;;;;13.80;90.80;14.00;99899.00;;;;344425;28;87224;-85
2022/04/28 00:46:28;;;;;;;;;;;13.80;90.70;14.00;99903.00;;;;345970;28;82581;-85
2022/04/28 00:46:43;;;;;;;;;;;13.80;90.80;14.10;99901.00;;;;344457;28;86150;-85
2022/04/28 00:46:55;;;;;;;;;;;13.80;90.60;14.10;99891.00;;;;347454;28;83332;-85
2022/04/28 00:47:07;;;;;;;;;;;13.80;90.20;14.10;99904.00;;;;346466;28;87349;-85
2022/04/28 00:47:19;;;;;;;;;;;13.80;90.50;14.00;99899.00;;;;345942;28;83595;-85
2022/04/28 00:50:39;;;;;;;;;;;13.70;90.70;14.10;99899.00;;;;343021;28;87382;-85
2022/04/28 00:50:51;;;;;;;;;;;13.70;90.60;14.10;99906.00;;;;344581;28;82491;-85
2022/04/28 00:51:04;;;;;;;;;;;13.70;90.60;14.10;99904.00;;;;344830;28;84039;-85
2022/04/28 00:51:16;;;;;;;;;;;13.70;90.70;14.00;99904.00;;;;347506;28;83352;-84
2022/04/28 00:51:29;;;;;;;;;;;13.70;90.80;14.00;99904.00;;;;347543;28;84537;-85
2022/04/28 00:51:41;;;;;;;;;;;13.70;90.90;14.00;99900.00;;;;347467;28;82424;-85
2022/04/28 00:51:54;;;;;;;;;;;13.70;90.90;14.00;99904.00;;;;348760;27;87024;-85
2022/04/28 00:52:09;;;;;;;;;;;13.70;90.70;14.00;99904.00;;;;344591;28;83510;-85
2022/04/28 00:52:21;;;;;;;;;;;13.70;90.70;14.00;99907.00;;;;344752;28;84461;-85
2022/04/28 00:52:33;;;;;;;;;;;13.70;90.90;13.90;99906.00;;;;347464;28;82350;-85
2022/04/28 00:52:45;;;;;;;;;;;13.70;91.00;13.90;99898.00;;;;345777;28;85192;-85
2022/04/28 00:52:57;;;;;;;;;;;13.60;90.80;13.90;99905.00;;;;344379;28;82410;-85
2022/04/28 00:53:11;;;;;;;;;;;13.70;91.10;13.90;99900.00;;;;342912;28;87333;-85
2022/04/28 00:53:23;;;;;;;;;;;13.60;91.20;13.90;99905.00;;;;347452;28;83486;-85
2022/04/28 00:53:39;;;;;;;;;;;13.60;91.10;13.90;99897.00;;;;345773;28;85218;-85
2022/04/28 00:53:51;;;;;;;;;;;13.60;90.80;14.00;99893.00;;;;343256;28;83402;-85
2022/04/28 00:54:03;;;;;;;;;;;13.60;90.70;14.00;99902.00;;;;344673;28;83509;-85
2022/04/28 00:54:15;;;;;;;;;;;13.60;90.70;14.00;99900.00;;;;344901;28;83326;-85
2022/04/28 00:54:27;;;;;;;;;;;13.60;90.50;14.10;99900.00;;;;343242;28;87138;-86
2022/04/28 00:54:39;;;;;;;;;;;13.60;90.50;14.10;99904.00;;;;343261;28;83535;-84
2022/04/28 00:54:52;;;;;;;;;;;13.60;90.60;14.00;99887.00;;;;344504;28;86462;-84
2022/04/28 00:55:04;;;;;;;;;;;13.60;90.80;14.00;99898.00;;;;347274;28;83481;-85
2022/04/28 00:55:16;;;;;;;;;;;13.60;90.80;14.00;99902.00;;;;345863;28;84743;-84
2022/04/28 00:55:28;;;;;;;;;;;13.60;91.00;14.00;99899.00;;;;345928;28;83319;-85
2022/04/28 00:55:41;;;;;;;;;;;13.60;90.90;14.10;99902.00;;;;346103;28;85266;-85
2022/04/28 00:55:53;;;;;;;;;;;13.60;90.90;14.00;99907.00;;;;343502;28;82273;-85
2022/04/28 00:56:05;;;;;;;;;;;13.60;91.10;14.00;99896.00;;;;344021;28;85107;-86
2022/04/28 00:56:16;;;;;;;;;;;13.60;91.10;14.00;99899.00;;;;346193;28;83369;-85
2022/04/28 00:56:29;;;;;;;;;;;13.60;91.00;14.10;99898.00;;;;344450;28;86248;-85
2022/04/28 00:56:40;;;;;;;;;;;13.60;91.00;14.10;99904.00;;;;345883;28;82445;-85
2022/04/28 00:56:52;;;;;;;;;;;13.60;91.10;14.00;99900.00;;;;344741;28;83944;-84
2022/04/28 00:57:04;;;;;;;;;;;13.60;91.20;14.00;99895.00;;;;342049;28;83504;-85
2022/04/28 00:57:16;;;;;;;;;;;13.60;91.20;13.80;99898.00;;;;345922;28;85303;-85
2022/04/28 00:57:29;;;;;;;;;;;13.60;91.30;13.80;99898.00;;;;345898;28;83333;-85
2022/04/28 00:57:41;;;;;;;;;;;13.60;91.30;13.70;99893.00;;;;346093;28;86960;-84
2022/04/28 00:57:52;;;;;;;;;;;13.60;91.50;13.70;99898.00;;;;346236;28;83293;-85
2022/04/28 00:58:05;;;;;;;;;;;13.60;91.50;13.70;99892.00;;;;344715;28;85167;-85
2022/04/28 00:58:16;;;;;;;;;;;13.60;91.50;13.80;99901.00;;;;344967;28;82242;-85
2022/04/28 00:58:28;;;;;;;;;;;13.60;91.40;13.80;99898.00;;;;347421;28;87472;-85
2022/04/28 00:58:40;;;;;;;;;;;13.50;91.20;13.80;99898.00;;;;346205;28;83711;-85
2022/04/28 00:58:52;;;;;;;;;;;13.60;91.30;13.80;99903.00;;;;344218;28;85842;-85
2022/04/28 00:59:04;;;;;;;;;;;13.50;91.20;13.90;99893.00;;;;345747;28;83529;-85
2022/04/28 00:59:15;;;;;;;;;;;13.50;91.00;13.90;99902.00;;;;345965;28;85198;-85
2022/04/28 00:59:30;;;;;;;;;;;13.50;90.90;14.00;99900.00;;;;346344;28;83305;-85
2022/04/28 00:59:42;;;;;;;;;;;13.50;90.90;14.00;99897.00;;;;346091;28;87120;-85
2022/04/28 00:59:53;;;;;;;;;;;13.50;91.10;14.00;99899.00;;;;346192;28;83188;-84
2022/04/28 01:00:06;;;;;;;;;;;13.60;91.30;13.90;99896.00;;;;345985;28;83850;-85
2022/04/28 01:00:18;;;;;;;;;;;13.50;91.40;14.00;99902.00;;;;346207;28;83242;-85
2022/04/28 01:00:30;;;;;;;;;;;13.50;91.50;14.00;99895.00;;;;346035;28;87539;-85
2022/04/28 01:00:41;;;;;;;;;;;13.50;91.60;13.90;99891.00;;;;346172;28;82465;-85
2022/04/28 01:00:58;;;;;;;;;;;13.50;91.60;14.00;99897.00;;;;344549;28;86554;-85
2022/04/28 01:01:10;;;;;;;;;;;13.60;91.50;14.00;99904.00;;;;344572;28;83520;-85
2022/04/28 01:01:22;;;;;;;;;;;13.50;91.40;13.80;99897.00;;;;345709;28;85336;-85
2022/04/28 01:01:34;;;;;;;;;;;13.50;91.40;13.80;99895.00;;;;346046;28;82657;-85
2022/04/28 01:01:46;;;;;;;;;;;13.50;91.60;13.70;99895.00;;;;343109;28;86996;-85
2022/04/28 01:01:58;;;;;;;;;;;13.50;91.70;13.70;99895.00;;;;343235;28;82569;-85
2022/04/28 01:02:10;;;;;;;;;;;13.50;91.90;13.60;99907.00;;;;347008;27;85730;-85
2022/04/28 01:02:24;;;;;;;;;;;13.50;92.00;13.60;99907.00;;;;346076;28;83479;-85
2022/04/28 01:02:36;;;;;;;;;;;13.50;92.00;13.50;99903.00;;;;343115;28;84467;-85
2022/04/28 01:02:48;;;;;;;;;;;13.50;92.00;13.40;99897.00;;;;344789;28;83364;-84
2022/04/28 01:03:00;;;;;;;;;;;13.50;92.20;13.40;99899.00;;;;342359;28;83868;-85
2022/04/28 01:03:12;;;;;;;;;;;13.40;92.20;13.40;99902.00;;;;344692;28;83409;-85
2022/04/28 01:03:25;;;;;;;;;;;13.40;92.20;13.40;99896.00;;;;343104;28;86008;-84
2022/04/28 01:03:37;;;;;;;;;;;13.40;92.20;13.40;99900.00;;;;343553;28;82419;-85